sensor_id;sensor_type;location;lat;lon;timestamp;pressure;altitude;pressure_sealevel;temperature;humidity
46379;BME280;32084;42.254;22.744;2023-03-21T00:00:42;95023.31;;;9.30;58.36
46379;BME280;32084;42.254;22.744;2023-03-21T00:03:08;95019.78;;;9.03;58.66
46379;BME280;32084;42.254;22.744;2023-03-21T00:05:41;95027.53;;;8.96;58.67
46379;BME280;32084;42.254;22.744;2023-03-21T00:08:07;95029.06;;;8.99;58.80
46379;BME280;32084;42.254;22.744;2023-03-21T00:10:33;95036.25;;;8.63;59.41
46379;BME280;32084;42.254;22.744;2023-03-21T00:12:59;95039.72;;;8.63;59.76
46379;BME280;32084;42.254;22.744;2023-03-21T00:15:25;95036.25;;;8.63;59.72
46379;BME280;32084;42.254;22.744;2023-03-21T00:17:55;95033.63;;;8.35;59.84
46379;BME280;32084;42.254;22.744;2023-03-21T00:20:31;95037.66;;;8.39;59.74
46379;BME280;32084;42.254;22.744;2023-03-21T00:23:02;95034.81;;;8.23;60.04
46379;BME280;32084;42.254;22.744;2023-03-21T00:25:29;95033.16;;;8.12;60.85
46379;BME280;32084;42.254;22.744;2023-03-21T00:27:56;95029.38;;;8.14;60.45
46379;BME280;32084;42.254;22.744;2023-03-21T00:30:22;95038.06;;;8.16;60.60
46379;BME280;32084;42.254;22.744;2023-03-21T00:32:48;95035.88;;;8.30;60.53
46379;BME280;32084;42.254;22.744;2023-03-21T00:35:15;95032.53;;;8.28;60.58
46379;BME280;32084;42.254;22.744;2023-03-21T00:37:41;95029.66;;;7.93;61.25
46379;BME280;32084;42.254;22.744;2023-03-21T00:40:08;95028.16;;;7.81;61.85
46379;BME280;32084;42.254;22.744;2023-03-21T00:42:35;95025.69;;;7.97;62.11
46379;BME280;32084;42.254;22.744;2023-03-21T00:45:02;95033.03;;;7.86;61.99
46379;BME280;32084;42.254;22.744;2023-03-21T00:47:28;95034.47;;;7.80;62.33
46379;BME280;32084;42.254;22.744;2023-03-21T00:49:54;95041.97;;;7.94;61.60
46379;BME280;32084;42.254;22.744;2023-03-21T00:52:20;95032.16;;;7.95;61.36
46379;BME280;32084;42.254;22.744;2023-03-21T00:54:47;95022.22;;;8.15;61.10
46379;BME280;32084;42.254;22.744;2023-03-21T00:57:13;95023.75;;;8.17;61.51
46379;BME280;32084;42.254;22.744;2023-03-21T00:59:39;95028.44;;;8.06;61.87
46379;BME280;32084;42.254;22.744;2023-03-21T01:02:05;95021.66;;;7.93;62.31
46379;BME280;32084;42.254;22.744;2023-03-21T01:04:39;95026.78;;;8.05;62.14
46379;BME280;32084;42.254;22.744;2023-03-21T01:07:05;95022.97;;;8.07;62.15
46379;BME280;32084;42.254;22.744;2023-03-21T01:09:31;95022.56;;;8.30;61.57
46379;BME280;32084;42.254;22.744;2023-03-21T01:11:57;95027.50;;;8.52;61.24
46379;BME280;32084;42.254;22.744;2023-03-21T01:14:23;95024.22;;;8.58;61.29
46379;BME280;32084;42.254;22.744;2023-03-21T01:16:50;95022.56;;;8.57;61.55
46379;BME280;32084;42.254;22.744;2023-03-21T01:19:18;95017.50;;;8.72;60.74
46379;BME280;32084;42.254;22.744;2023-03-21T01:21:44;95013.91;;;8.82;60.31
46379;BME280;32084;42.254;22.744;2023-03-21T01:24:10;95008.91;;;8.78;60.64
46379;BME280;32084;42.254;22.744;2023-03-21T01:26:36;95010.13;;;8.84;60.92
46379;BME280;32084;42.254;22.744;2023-03-21T01:29:03;95006.50;;;8.93;61.24
46379;BME280;32084;42.254;22.744;2023-03-21T01:31:29;95003.63;;;8.87;61.41
46379;BME280;32084;42.254;22.744;2023-03-21T01:33:55;94999.28;;;8.86;61.63
46379;BME280;32084;42.254;22.744;2023-03-21T01:36:22;94993.75;;;8.61;62.81
46379;BME280;32084;42.254;22.744;2023-03-21T01:38:48;94993.47;;;8.46;63.16
46379;BME280;32084;42.254;22.744;2023-03-21T01:41:24;94990.34;;;8.51;62.87
46379;BME280;32084;42.254;22.744;2023-03-21T01:43:51;94993.75;;;8.61;62.72
46379;BME280;32084;42.254;22.744;2023-03-21T01:48:54;94998.38;;;8.59;63.24
46379;BME280;32084;42.254;22.744;2023-03-21T01:51:21;95000.59;;;8.46;63.61
46379;BME280;32084;42.254;22.744;2023-03-21T01:53:48;94996.13;;;8.46;63.11
46379;BME280;32084;42.254;22.744;2023-03-21T01:56:25;94995.19;;;8.55;62.73
46379;BME280;32084;42.254;22.744;2023-03-21T01:59:00;95001.59;;;8.63;63.12
46379;BME280;32084;42.254;22.744;2023-03-21T02:01:29;95001.03;;;8.41;63.79
46379;BME280;32084;42.254;22.744;2023-03-21T02:03:56;94998.88;;;8.27;64.30
46379;BME280;32084;42.254;22.744;2023-03-21T02:08:48;94994.00;;;8.40;62.96
46379;BME280;32084;42.254;22.744;2023-03-21T02:11:14;94996.75;;;8.30;63.56
46379;BME280;32084;42.254;22.744;2023-03-21T02:13:41;94993.41;;;8.10;63.49
46379;BME280;32084;42.254;22.744;2023-03-21T02:21:09;94991.97;;;8.16;64.01
46379;BME280;32084;42.254;22.744;2023-03-21T02:42:19;94973.03;;;7.63;65.59
46379;BME280;32084;42.254;22.744;2023-03-21T02:50:04;94992.19;;;7.39;65.62
46379;BME280;32084;42.254;22.744;2023-03-21T02:52:33;94989.66;;;7.38;65.65
46379;BME280;32084;42.254;22.744;2023-03-21T02:55:00;94988.59;;;7.58;65.04
46379;BME280;32084;42.254;22.744;2023-03-21T02:57:29;94990.53;;;7.66;64.57
46379;BME280;32084;42.254;22.744;2023-03-21T02:59:56;94990.38;;;7.68;65.14
46379;BME280;32084;42.254;22.744;2023-03-21T03:02:25;94987.50;;;7.61;64.96
46379;BME280;32084;42.254;22.744;2023-03-21T03:04:51;95009.19;;;7.29;65.68
46379;BME280;32084;42.254;22.744;2023-03-21T03:15:10;94992.31;;;7.00;67.00
46379;BME280;32084;42.254;22.744;2023-03-21T03:17:51;94996.06;;;7.08;66.95
46379;BME280;32084;42.254;22.744;2023-03-21T03:25:31;95008.81;;;7.04;67.98
46379;BME280;32084;42.254;22.744;2023-03-21T03:28:01;94991.63;;;6.89;67.22
46379;BME280;32084;42.254;22.744;2023-03-21T03:30:29;94987.56;;;6.84;67.57
46379;BME280;32084;42.254;22.744;2023-03-21T03:32:56;94986.59;;;6.76;67.53
46379;BME280;32084;42.254;22.744;2023-03-21T03:35:23;94979.03;;;6.81;67.29
46379;BME280;32084;42.254;22.744;2023-03-21T03:37:55;94987.16;;;6.89;67.08
46379;BME280;32084;42.254;22.744;2023-03-21T03:40:25;94987.00;;;6.91;66.73
46379;BME280;32084;42.254;22.744;2023-03-21T03:42:52;94982.38;;;6.93;66.89
46379;BME280;32084;42.254;22.744;2023-03-21T03:45:24;94989.66;;;6.71;67.12
46379;BME280;32084;42.254;22.744;2023-03-21T03:53:06;94965.91;;;6.79;67.38
46379;BME280;32084;42.254;22.744;2023-03-21T03:55:36;94965.88;;;6.89;67.26
46379;BME280;32084;42.254;22.744;2023-03-21T03:58:03;94980.13;;;6.98;67.42
46379;BME280;32084;42.254;22.744;2023-03-21T04:00:32;94964.19;;;6.88;67.12
46379;BME280;32084;42.254;22.744;2023-03-21T04:02:59;94972.63;;;6.83;67.50
46379;BME280;32084;42.254;22.744;2023-03-21T04:05:25;94970.78;;;6.84;67.35
46379;BME280;32084;42.254;22.744;2023-03-21T04:07:52;94970.19;;;6.90;67.76
46379;BME280;32084;42.254;22.744;2023-03-21T04:10:19;94976.50;;;6.99;67.87
46379;BME280;32084;42.254;22.744;2023-03-21T04:12:46;94973.41;;;6.94;68.14
46379;BME280;32084;42.254;22.744;2023-03-21T04:15:12;94960.13;;;6.94;67.75
46379;BME280;32084;42.254;22.744;2023-03-21T04:17:38;94974.97;;;6.87;67.95
46379;BME280;32084;42.254;22.744;2023-03-21T04:20:05;94969.81;;;6.85;68.09
46379;BME280;32084;42.254;22.744;2023-03-21T04:22:32;94969.66;;;6.87;68.56
46379;BME280;32084;42.254;22.744;2023-03-21T04:24:59;94976.66;;;6.88;68.08
46379;BME280;32084;42.254;22.744;2023-03-21T04:27:26;94982.66;;;6.90;67.94
46379;BME280;32084;42.254;22.744;2023-03-21T04:29:52;94983.50;;;6.90;68.03
46379;BME280;32084;42.254;22.744;2023-03-21T04:32:18;94985.47;;;6.88;67.99
46379;BME280;32084;42.254;22.744;2023-03-21T04:34:49;94989.94;;;6.88;68.15
46379;BME280;32084;42.254;22.744;2023-03-21T04:37:19;94979.59;;;6.75;68.48
46379;BME280;32084;42.254;22.744;2023-03-21T04:39:46;94984.50;;;6.60;69.11
46379;BME280;32084;42.254;22.744;2023-03-21T04:42:13;94983.53;;;6.61;68.93
46379;BME280;32084;42.254;22.744;2023-03-21T04:44:40;94985.22;;;6.81;68.49
46379;BME280;32084;42.254;22.744;2023-03-21T04:47:06;94992.84;;;6.94;68.32
46379;BME280;32084;42.254;22.744;2023-03-21T04:49:32;94992.44;;;6.99;68.55
46379;BME280;32084;42.254;22.744;2023-03-21T04:51:58;94988.84;;;6.71;69.04
46379;BME280;32084;42.254;22.744;2023-03-21T04:54:25;94988.28;;;6.77;68.99
46379;BME280;32084;42.254;22.744;2023-03-21T04:56:51;94988.97;;;6.89;68.93
46379;BME280;32084;42.254;22.744;2023-03-21T04:59:17;94991.88;;;6.95;68.42
46379;BME280;32084;42.254;22.744;2023-03-21T05:01:44;94995.53;;;7.04;68.37
46379;BME280;32084;42.254;22.744;2023-03-21T05:04:11;94995.19;;;7.17;68.04
46379;BME280;32084;42.254;22.744;2023-03-21T05:06:37;94999.38;;;7.29;67.73
46379;BME280;32084;42.254;22.744;2023-03-21T05:09:04;95004.22;;;7.34;68.05
46379;BME280;32084;42.254;22.744;2023-03-21T05:11:30;95001.84;;;7.40;67.98
46379;BME280;32084;42.254;22.744;2023-03-21T05:13:57;94993.69;;;7.52;67.54
46379;BME280;32084;42.254;22.744;2023-03-21T05:16:24;95001.94;;;7.49;67.86
46379;BME280;32084;42.254;22.744;2023-03-21T05:18:55;94997.00;;;7.63;67.47
46379;BME280;32084;42.254;22.744;2023-03-21T05:21:22;95000.38;;;7.93;66.93
46379;BME280;32084;42.254;22.744;2023-03-21T05:23:48;94998.63;;;8.02;66.30
46379;BME280;32084;42.254;22.744;2023-03-21T05:26:19;94999.28;;;8.32;65.73
46379;BME280;32084;42.254;22.744;2023-03-21T05:28:45;95003.81;;;8.67;65.38
46379;BME280;32084;42.254;22.744;2023-03-21T05:31:13;94994.91;;;9.03;63.95
46379;BME280;32084;42.254;22.744;2023-03-21T05:33:42;95006.44;;;9.29;65.59
46379;BME280;32084;42.254;22.744;2023-03-21T05:36:08;95000.91;;;9.49;64.03
46379;BME280;32084;42.254;22.744;2023-03-21T05:38:34;94998.56;;;9.80;63.18
46379;BME280;32084;42.254;22.744;2023-03-21T05:41:00;95002.72;;;10.25;60.79
46379;BME280;32084;42.254;22.744;2023-03-21T05:43:26;95001.84;;;10.59;62.12
46379;BME280;32084;42.254;22.744;2023-03-21T05:45:52;95005.03;;;10.63;60.44
46379;BME280;32084;42.254;22.744;2023-03-21T05:48:18;95004.19;;;10.87;59.66
46379;BME280;32084;42.254;22.744;2023-03-21T05:50:45;95001.53;;;11.20;57.90
46379;BME280;32084;42.254;22.744;2023-03-21T05:53:11;94999.53;;;11.22;57.14
46379;BME280;32084;42.254;22.744;2023-03-21T05:55:37;94995.13;;;11.45;55.56
46379;BME280;32084;42.254;22.744;2023-03-21T05:58:03;94994.13;;;11.38;56.24
46379;BME280;32084;42.254;22.744;2023-03-21T06:00:29;94995.50;;;11.26;56.93
46379;BME280;32084;42.254;22.744;2023-03-21T06:02:56;94989.66;;;11.06;57.23
46379;BME280;32084;42.254;22.744;2023-03-21T06:05:22;94988.31;;;11.02;58.40
46379;BME280;32084;42.254;22.744;2023-03-21T06:07:48;94994.16;;;11.05;58.46
46379;BME280;32084;42.254;22.744;2023-03-21T06:10:14;94996.00;;;11.13;58.26
46379;BME280;32084;42.254;22.744;2023-03-21T06:12:40;94995.31;;;11.19;58.95
46379;BME280;32084;42.254;22.744;2023-03-21T06:15:08;94999.69;;;11.20;58.94
46379;BME280;32084;42.254;22.744;2023-03-21T06:17:34;94988.63;;;11.31;59.30
46379;BME280;32084;42.254;22.744;2023-03-21T06:20:00;94989.47;;;11.32;57.88
46379;BME280;32084;42.254;22.744;2023-03-21T06:22:27;94993.66;;;11.35;57.33
46379;BME280;32084;42.254;22.744;2023-03-21T06:24:53;94982.56;;;11.54;56.87
46379;BME280;32084;42.254;22.744;2023-03-21T06:27:19;94986.69;;;11.73;56.03
46379;BME280;32084;42.254;22.744;2023-03-21T06:29:46;94989.38;;;11.89;55.96
46379;BME280;32084;42.254;22.744;2023-03-21T06:32:12;94985.44;;;12.00;55.67
46379;BME280;32084;42.254;22.744;2023-03-21T06:34:38;94979.59;;;11.97;55.40
46379;BME280;32084;42.254;22.744;2023-03-21T06:37:04;94984.56;;;12.08;55.85
46379;BME280;32084;42.254;22.744;2023-03-21T06:39:30;94989.66;;;12.03;55.99
46379;BME280;32084;42.254;22.744;2023-03-21T06:41:58;94985.19;;;11.79;55.70
46379;BME280;32084;42.254;22.744;2023-03-21T06:44:24;94978.50;;;11.66;56.65
46379;BME280;32084;42.254;22.744;2023-03-21T06:46:50;94971.13;;;11.68;56.55
46379;BME280;32084;42.254;22.744;2023-03-21T06:49:17;94972.13;;;11.76;57.05
46379;BME280;32084;42.254;22.744;2023-03-21T06:51:43;94984.34;;;11.70;57.09
46379;BME280;32084;42.254;22.744;2023-03-21T06:54:09;94988.56;;;11.72;57.37
46379;BME280;32084;42.254;22.744;2023-03-21T06:56:35;94985.91;;;11.56;58.09
46379;BME280;32084;42.254;22.744;2023-03-21T06:59:02;94992.59;;;11.60;58.51
46379;BME280;32084;42.254;22.744;2023-03-21T07:01:28;94997.66;;;11.39;59.04
46379;BME280;32084;42.254;22.744;2023-03-21T07:03:55;94991.16;;;11.17;59.76
46379;BME280;32084;42.254;22.744;2023-03-21T07:06:23;94996.00;;;11.05;59.18
46379;BME280;32084;42.254;22.744;2023-03-21T07:08:53;94998.50;;;10.98;59.80
46379;BME280;32084;42.254;22.744;2023-03-21T07:11:20;95000.19;;;11.16;60.31
46379;BME280;32084;42.254;22.744;2023-03-21T07:13:47;94999.84;;;11.35;58.58
46379;BME280;32084;42.254;22.744;2023-03-21T07:16:14;95003.88;;;11.31;58.37
46379;BME280;32084;42.254;22.744;2023-03-21T07:18:40;95007.84;;;11.43;57.99
46379;BME280;32084;42.254;22.744;2023-03-21T07:21:07;95004.50;;;11.41;57.56
46379;BME280;32084;42.254;22.744;2023-03-21T07:23:34;94995.31;;;11.36;58.15
46379;BME280;32084;42.254;22.744;2023-03-21T07:26:00;94991.44;;;11.38;59.01
46379;BME280;32084;42.254;22.744;2023-03-21T07:28:26;94993.97;;;11.40;59.83
46379;BME280;32084;42.254;22.744;2023-03-21T07:30:56;94994.63;;;11.42;58.33
46379;BME280;32084;42.254;22.744;2023-03-21T07:33:23;94986.63;;;11.33;57.55
46379;BME280;32084;42.254;22.744;2023-03-21T07:35:49;94986.28;;;11.37;57.59
46379;BME280;32084;42.254;22.744;2023-03-21T07:38:16;94980.78;;;11.30;57.31
46379;BME280;32084;42.254;22.744;2023-03-21T07:40:43;94967.03;;;11.25;58.00
46379;BME280;32084;42.254;22.744;2023-03-21T07:43:09;94976.38;;;11.53;58.06
46379;BME280;32084;42.254;22.744;2023-03-21T07:45:35;94967.41;;;11.78;56.81
46379;BME280;32084;42.254;22.744;2023-03-21T07:48:01;94972.44;;;11.81;55.90
46379;BME280;32084;42.254;22.744;2023-03-21T07:50:27;94980.78;;;11.94;56.34
46379;BME280;32084;42.254;22.744;2023-03-21T07:52:53;94987.41;;;12.15;55.32
46379;BME280;32084;42.254;22.744;2023-03-21T07:55:19;94985.75;;;12.45;55.63
46379;BME280;32084;42.254;22.744;2023-03-21T07:57:48;94988.78;;;12.88;53.59
46379;BME280;32084;42.254;22.744;2023-03-21T08:00:14;94983.25;;;13.36;51.76
46379;BME280;32084;42.254;22.744;2023-03-21T08:02:51;94979.88;;;13.72;52.52
46379;BME280;32084;42.254;22.744;2023-03-21T08:05:23;94976.16;;;13.73;52.82
46379;BME280;32084;42.254;22.744;2023-03-21T08:07:49;94981.41;;;13.51;52.86
46379;BME280;32084;42.254;22.744;2023-03-21T08:10:16;94979.56;;;13.52;52.63
46379;BME280;32084;42.254;22.744;2023-03-21T08:12:42;94981.22;;;13.67;52.00
46379;BME280;32084;42.254;22.744;2023-03-21T08:15:08;94978.34;;;14.14;51.67
46379;BME280;32084;42.254;22.744;2023-03-21T08:17:34;94974.78;;;14.43;51.08
46379;BME280;32084;42.254;22.744;2023-03-21T08:20:03;94985.53;;;14.79;49.59
46379;BME280;32084;42.254;22.744;2023-03-21T08:22:32;94972.53;;;14.83;49.77
46379;BME280;32084;42.254;22.744;2023-03-21T08:24:58;94966.78;;;14.86;49.16
46379;BME280;32084;42.254;22.744;2023-03-21T08:27:24;94968.19;;;14.82;48.75
46379;BME280;32084;42.254;22.744;2023-03-21T08:29:50;94968.81;;;14.62;48.42
46379;BME280;32084;42.254;22.744;2023-03-21T08:32:17;94959.56;;;14.50;49.87
46379;BME280;32084;42.254;22.744;2023-03-21T08:34:43;94968.63;;;14.64;49.43
46379;BME280;32084;42.254;22.744;2023-03-21T08:37:09;94966.66;;;14.73;49.19
46379;BME280;32084;42.254;22.744;2023-03-21T08:39:35;94956.78;;;15.01;49.01
46379;BME280;32084;42.254;22.744;2023-03-21T08:42:02;94953.78;;;15.39;48.18
46379;BME280;32084;42.254;22.744;2023-03-21T08:44:30;94949.59;;;15.93;46.93
46379;BME280;32084;42.254;22.744;2023-03-21T08:46:56;94944.19;;;15.93;46.35
46379;BME280;32084;42.254;22.744;2023-03-21T08:49:22;94946.00;;;16.14;45.64
46379;BME280;32084;42.254;22.744;2023-03-21T08:51:48;94956.50;;;16.57;43.98
46379;BME280;32084;42.254;22.744;2023-03-21T08:54:18;94954.47;;;16.66;44.49
46379;BME280;32084;42.254;22.744;2023-03-21T08:56:45;94964.31;;;17.01;42.28
46379;BME280;32084;42.254;22.744;2023-03-21T08:59:11;94959.16;;;17.19;42.85
46379;BME280;32084;42.254;22.744;2023-03-21T09:01:37;94953.50;;;16.87;44.04
46379;BME280;32084;42.254;22.744;2023-03-21T09:04:03;94938.16;;;17.14;44.75
46379;BME280;32084;42.254;22.744;2023-03-21T09:06:32;94949.16;;;17.26;43.31
46379;BME280;32084;42.254;22.744;2023-03-21T09:08:58;94947.91;;;17.22;43.29
46379;BME280;32084;42.254;22.744;2023-03-21T09:11:24;94957.91;;;17.22;42.88
46379;BME280;32084;42.254;22.744;2023-03-21T09:13:50;94952.50;;;17.22;41.70
46379;BME280;32084;42.254;22.744;2023-03-21T09:16:16;94957.69;;;17.50;42.08
46379;BME280;32084;42.254;22.744;2023-03-21T09:18:42;94936.69;;;17.72;41.69
46379;BME280;32084;42.254;22.744;2023-03-21T09:21:20;94932.50;;;17.69;41.40
46379;BME280;32084;42.254;22.744;2023-03-21T09:23:48;94939.16;;;17.60;41.43
46379;BME280;32084;42.254;22.744;2023-03-21T09:26:18;94933.16;;;17.58;41.50
46379;BME280;32084;42.254;22.744;2023-03-21T09:28:44;94933.53;;;17.82;41.42
46379;BME280;32084;42.254;22.744;2023-03-21T09:31:14;94926.28;;;17.69;41.94
46379;BME280;32084;42.254;22.744;2023-03-21T09:33:41;94926.03;;;17.84;41.61
46379;BME280;32084;42.254;22.744;2023-03-21T09:36:08;94928.78;;;17.70;41.55
46379;BME280;32084;42.254;22.744;2023-03-21T09:38:40;94931.69;;;17.62;41.17
46379;BME280;32084;42.254;22.744;2023-03-21T09:44:09;94920.72;;;18.29;41.18
46379;BME280;32084;42.254;22.744;2023-03-21T09:49:06;94924.66;;;18.78;40.42
46379;BME280;32084;42.254;22.744;2023-03-21T09:51:38;94928.81;;;19.13;37.83
46379;BME280;32084;42.254;22.744;2023-03-21T09:54:07;94925.47;;;19.86;38.60
46379;BME280;32084;42.254;22.744;2023-03-21T09:56:36;94919.31;;;20.34;37.70
46379;BME280;32084;42.254;22.744;2023-03-21T09:59:05;94924.72;;;20.71;37.64
46379;BME280;32084;42.254;22.744;2023-03-21T10:01:33;94928.66;;;20.20;36.79
46379;BME280;32084;42.254;22.744;2023-03-21T10:04:07;94909.38;;;20.28;37.33
46379;BME280;32084;42.254;22.744;2023-03-21T10:06:36;94911.19;;;20.16;36.17
46379;BME280;32084;42.254;22.744;2023-03-21T10:09:05;94914.97;;;19.96;36.84
46379;BME280;32084;42.254;22.744;2023-03-21T10:11:38;94899.59;;;19.90;37.06
46379;BME280;32084;42.254;22.744;2023-03-21T10:14:11;94899.88;;;20.00;37.32
46379;BME280;32084;42.254;22.744;2023-03-21T10:16:42;94895.00;;;19.65;37.27
46379;BME280;32084;42.254;22.744;2023-03-21T10:19:10;94904.63;;;19.61;38.13
46379;BME280;32084;42.254;22.744;2023-03-21T10:21:38;94894.53;;;19.75;37.77
46379;BME280;32084;42.254;22.744;2023-03-21T10:24:12;94900.31;;;20.16;36.89
46379;BME280;32084;42.254;22.744;2023-03-21T10:26:38;94905.38;;;19.94;35.98
46379;BME280;32084;42.254;22.744;2023-03-21T10:29:05;94901.59;;;19.51;35.63
46379;BME280;32084;42.254;22.744;2023-03-21T10:31:31;94901.41;;;19.27;37.53
46379;BME280;32084;42.254;22.744;2023-03-21T10:33:58;94897.09;;;18.88;37.03
46379;BME280;32084;42.254;22.744;2023-03-21T10:36:27;94885.78;;;18.98;36.87
46379;BME280;32084;42.254;22.744;2023-03-21T10:38:59;94876.31;;;19.32;36.58
46379;BME280;32084;42.254;22.744;2023-03-21T10:41:26;94888.09;;;19.44;35.36
46379;BME280;32084;42.254;22.744;2023-03-21T10:44:03;94872.56;;;19.77;36.49
46379;BME280;32084;42.254;22.744;2023-03-21T10:46:29;94865.41;;;19.82;36.97
46379;BME280;32084;42.254;22.744;2023-03-21T10:48:55;94880.72;;;19.77;36.02
46379;BME280;32084;42.254;22.744;2023-03-21T10:51:24;94871.03;;;19.62;36.56
46379;BME280;32084;42.254;22.744;2023-03-21T10:53:55;94877.25;;;19.19;34.87
46379;BME280;32084;42.254;22.744;2023-03-21T10:56:24;94880.97;;;19.00;35.28
46379;BME280;32084;42.254;22.744;2023-03-21T10:58:52;94879.38;;;18.92;35.43
46379;BME280;32084;42.254;22.744;2023-03-21T11:01:54;94871.53;;;18.84;36.20
46379;BME280;32084;42.254;22.744;2023-03-21T11:04:16;94860.22;;;18.87;36.08
46379;BME280;32084;42.254;22.744;2023-03-21T11:06:44;94868.31;;;18.94;35.29
46379;BME280;32084;42.254;22.744;2023-03-21T11:09:16;94866.25;;;18.89;34.53
46379;BME280;32084;42.254;22.744;2023-03-21T11:17:28;94854.69;;;19.00;36.09
46379;BME280;32084;42.254;22.744;2023-03-21T11:22:20;94847.47;;;19.19;35.00
46379;BME280;32084;42.254;22.744;2023-03-21T11:28:13;94832.38;;;19.48;34.99
46379;BME280;32084;42.254;22.744;2023-03-21T11:30:56;94827.34;;;19.52;34.76
46379;BME280;32084;42.254;22.744;2023-03-21T11:33:25;94830.03;;;19.34;34.32
46379;BME280;32084;42.254;22.744;2023-03-21T11:36:00;94823.66;;;19.21;35.33
46379;BME280;32084;42.254;22.744;2023-03-21T11:38:28;94815.22;;;19.11;35.67
46379;BME280;32084;42.254;22.744;2023-03-21T11:40:56;94817.66;;;19.19;35.61
46379;BME280;32084;42.254;22.744;2023-03-21T11:43:35;94809.41;;;19.07;35.52
46379;BME280;32084;42.254;22.744;2023-03-21T11:48:32;94810.72;;;18.73;35.34
46379;BME280;32084;42.254;22.744;2023-03-21T11:51:03;94806.94;;;18.74;34.29
46379;BME280;32084;42.254;22.744;2023-03-21T11:53:44;94802.63;;;18.66;34.55
46379;BME280;32084;42.254;22.744;2023-03-21T11:56:21;94800.88;;;18.53;34.60
46379;BME280;32084;42.254;22.744;2023-03-21T12:04:18;94794.50;;;18.41;35.11
46379;BME280;32084;42.254;22.744;2023-03-21T12:06:51;94792.28;;;18.57;34.57
46379;BME280;32084;42.254;22.744;2023-03-21T12:14:38;94790.69;;;18.81;34.55
46379;BME280;32084;42.254;22.744;2023-03-21T12:19:51;94776.66;;;18.59;34.30
46379;BME280;32084;42.254;22.744;2023-03-21T12:24:54;94784.38;;;18.30;34.08
46379;BME280;32084;42.254;22.744;2023-03-21T12:30:23;94777.53;;;18.27;34.29
46379;BME280;32084;42.254;22.744;2023-03-21T12:33:17;94766.78;;;18.46;34.20
46379;BME280;32084;42.254;22.744;2023-03-21T12:38:24;94766.31;;;18.74;34.03
46379;BME280;32084;42.254;22.744;2023-03-21T12:46:19;94754.28;;;18.70;34.02
46379;BME280;32084;42.254;22.744;2023-03-21T12:51:14;94751.59;;;18.70;33.71
46379;BME280;32084;42.254;22.744;2023-03-21T12:53:52;94750.66;;;18.58;34.81
46379;BME280;32084;42.254;22.744;2023-03-21T12:56:24;94746.72;;;18.53;35.21
46379;BME280;32084;42.254;22.744;2023-03-21T12:59:02;94742.34;;;18.52;35.17
46379;BME280;32084;42.254;22.744;2023-03-21T13:01:30;94739.03;;;18.50;35.43
46379;BME280;32084;42.254;22.744;2023-03-21T13:06:42;94737.34;;;18.56;35.15
46379;BME280;32084;42.254;22.744;2023-03-21T13:09:24;94735.00;;;18.60;34.64
46379;BME280;32084;42.254;22.744;2023-03-21T13:11:53;94729.81;;;18.58;34.59
46379;BME280;32084;42.254;22.744;2023-03-21T13:14:29;94727.88;;;18.65;34.66
46379;BME280;32084;42.254;22.744;2023-03-21T13:17:05;94729.50;;;18.73;34.33
46379;BME280;32084;42.254;22.744;2023-03-21T13:24:50;94731.97;;;18.49;33.64
46379;BME280;32084;42.254;22.744;2023-03-21T13:27:31;94724.28;;;18.46;34.05
46379;BME280;32084;42.254;22.744;2023-03-21T13:30:16;94720.59;;;18.41;33.74
46379;BME280;32084;42.254;22.744;2023-03-21T13:32:43;94710.56;;;18.48;34.54
46379;BME280;32084;42.254;22.744;2023-03-21T13:35:21;94710.38;;;18.43;34.04
46379;BME280;32084;42.254;22.744;2023-03-21T13:37:54;94715.34;;;18.46;34.30
46379;BME280;32084;42.254;22.744;2023-03-21T13:40:25;94709.94;;;18.46;35.34
46379;BME280;32084;42.254;22.744;2023-03-21T13:42:57;94720.72;;;18.21;34.06
46379;BME280;32084;42.254;22.744;2023-03-21T13:45:32;94711.81;;;18.13;36.08
46379;BME280;32084;42.254;22.744;2023-03-21T13:48:01;94702.66;;;18.14;35.85
46379;BME280;32084;42.254;22.744;2023-03-21T13:50:29;94708.16;;;18.01;35.13
46379;BME280;32084;42.254;22.744;2023-03-21T13:55:33;94705.34;;;17.83;34.68
46379;BME280;32084;42.254;22.744;2023-03-21T13:58:21;94708.94;;;17.70;33.64
46379;BME280;32084;42.254;22.744;2023-03-21T14:01:01;94702.31;;;17.66;35.12
46379;BME280;32084;42.254;22.744;2023-03-21T14:03:29;94701.34;;;17.53;33.89
46379;BME280;32084;42.254;22.744;2023-03-21T14:05:58;94707.81;;;17.46;34.13
46379;BME280;32084;42.254;22.744;2023-03-21T14:08:24;94709.03;;;17.50;33.87
46379;BME280;32084;42.254;22.744;2023-03-21T14:10:53;94706.56;;;17.48;34.23
46379;BME280;32084;42.254;22.744;2023-03-21T14:13:21;94706.16;;;17.45;34.84
46379;BME280;32084;42.254;22.744;2023-03-21T14:15:50;94707.22;;;17.44;34.15
46379;BME280;32084;42.254;22.744;2023-03-21T14:18:20;94716.16;;;17.37;34.19
46379;BME280;32084;42.254;22.744;2023-03-21T14:20:54;94724.09;;;17.32;33.78
46379;BME280;32084;42.254;22.744;2023-03-21T14:23:20;94714.69;;;17.42;34.88
46379;BME280;32084;42.254;22.744;2023-03-21T14:25:47;94710.47;;;17.52;36.10
46379;BME280;32084;42.254;22.744;2023-03-21T14:30:40;94696.88;;;17.27;38.29
46379;BME280;32084;42.254;22.744;2023-03-21T14:33:12;94691.72;;;17.12;39.24
46379;BME280;32084;42.254;22.744;2023-03-21T14:35:40;94686.81;;;16.96;39.58
46379;BME280;32084;42.254;22.744;2023-03-21T14:38:07;94673.31;;;16.83;39.59
46379;BME280;32084;42.254;22.744;2023-03-21T14:40:34;94664.19;;;16.70;40.52
46379;BME280;32084;42.254;22.744;2023-03-21T14:43:04;94664.19;;;16.64;40.28
46379;BME280;32084;42.254;22.744;2023-03-21T14:45:32;94658.59;;;16.65;39.91
46379;BME280;32084;42.254;22.744;2023-03-21T14:48:00;94666.69;;;16.65;39.98
46379;BME280;32084;42.254;22.744;2023-03-21T14:53:10;94660.47;;;16.71;39.97
46379;BME280;32084;42.254;22.744;2023-03-21T14:55:46;94671.88;;;16.73;39.90